Brooklyn Center, MN (55429)

4:22 PM CDT on August 31, 2015 (GMT -0500)
Crystal | | Change Station
CLOSE
Current Station
Airport
Location: Minneapolis Crystal,
Elevation: 866 ft
Nearby Weather Stations

Elev 866 ft 45.06 °N, 93.35 °W | Updated 29 minutes ago

Clear
Clear
86 °F
Feels Like 89 °F
N
18
Wind Variable Wind from South
Gusts 24 mph

Today
High -- | Low -- °F
--% Chance of Precip.
Yesterday
High -- | Low -- °F
Precip. -- in
6:33 AM 7:52 PM
Waning Gibbous, 93% visible
Pressure 29.86 in
Visibility 10.0 miles
Clouds Clear
Heat Index 89 °F
Dew Point 68 °F
Humidity 55%
Rainfall 0.00 in
Snow Depth Not available.
UV 5 out of 12
Pollen 9.40 out of 12
Air Quality Not available.
Flu Activity Not available.
METAR KMIC 312053Z 19016G21KT 10SM CLR 30/20 A2987 RMK AO2 PK WND 19026/2032 SLP109 T03000200 58011
Pressure 29.86 in
Visibility 10.0 miles
Clouds Clear
Heat Index 89 °F
Dew Point 68 °F
Humidity 55%
Rainfall 0.00 in
Snow Depth Not available.
UV 5 out of 12
Pollen 9.40 out of 12
Air Quality Not available.
Flu Activity Not available.
METAR KMIC 312053Z 19016G21KT 10SM CLR 30/20 A2987 RMK AO2 PK WND 19026/2032 SLP109 T03000200 58011

10-Day Weather Forecast

×

Almanac

Astronomy

Aug. 31, 2015 Rise Set
Actual Time
Civil Twilight
Nautical Twilight
Astronomical Twilight
Moon
Length of Visible Light
Length of Day
Tomorrow will be .
, % of the Moon is Illuminated

Today's Extremes

State Highs State Lows

Community

WunderPhotos

Upload Photos

1,851,374 photos uploaded!

WunderBlogs® & News

Nearby

Air Quality

  Air Quality AQ Index Pollutant
Not available.

Snow Depth

Station Depth Elevation

Earthquake Activity

City Distance Mag. Time & Date
Minimum magnitude displayed is 2.5.

Coastal Water Temperatures

Place Temperature

Stations

Nearby Weather Stations

Station Location Temp. Windchill Dew Point Humidity Wind Precip. Elev Updated Type